Terminal Aerodrome Forecast
Issued by NWS

Home | Current Version | Previous Version | Graphics & Text | Print | Product List | Glossary Off
Versions: 1 2 3 4 5 6 7 8 9 10 11 12 13 14 15 16 17 18 19 20 21

000
FTUS43 KMPX 282100 AAA
TAFAXN
TAF AMD
KAXN 282116Z 2821/2918 12008KT P6SM SCT020 OVC080
      TEMPO 2821/2824 BKN015
     FM290000 13007KT P6SM BKN015 OVC035
     FM290600 15009KT P6SM SCT020 OVC035
     FM291500 19007KT P6SM SCT020 OVC035=

USA.gov is the U.S. government's official web portal to all federal, state and local government web resources and services.